Watson Lake Airport

CYQH | YQH

Watson Lake , Yukon , Canada

Sunday, January 26th, 2020 | 15:06

Weather

CYQH 262200Z 11013G18KT 40SM OVC110 M01/M05 A2941 RMK AC8 SLP010

Charts

No Charts Available

Gates

No Gates Available

Runways

1 Available

Events

No events for this airport


New event